createdAt,value
2018-07-25T00:02:14.666Z,87.08
2018-07-25T00:04:46.745Z,86.38
2018-07-25T00:07:18.798Z,85.87
2018-07-25T00:09:50.812Z,87.57
2018-07-25T00:12:22.907Z,87.28
2018-07-25T00:14:55.394Z,87.18
2018-07-25T00:17:27.457Z,87.59
2018-07-25T00:19:59.535Z,86.94
2018-07-25T00:22:31.611Z,87.53
2018-07-25T00:25:03.655Z,87.32
2018-07-25T00:27:35.720Z,88.23
2018-07-25T00:30:07.828Z,88.15
2018-07-25T00:32:39.889Z,88.93
2018-07-25T00:35:11.935Z,89.31
2018-07-25T00:37:44.057Z,89.23
2018-07-25T00:40:16.168Z,88.70
2018-07-25T00:42:48.790Z,89.32
2018-07-25T00:45:21.273Z,89.43
2018-07-25T00:47:53.567Z,89.60
2018-07-25T00:50:26.255Z,91.22
2018-07-25T00:52:58.402Z,91.80
2018-07-25T00:55:30.540Z,91.53
2018-07-25T00:58:02.610Z,92.55
2018-07-25T01:00:34.763Z,93.07
2018-07-25T01:03:06.831Z,93.29
2018-07-25T01:05:38.943Z,94.54
2018-07-25T01:08:11.042Z,94.73
2018-07-25T01:10:43.078Z,94.78
2018-07-25T01:13:15.166Z,95.80
2018-07-25T01:15:47.218Z,95.96
2018-07-25T01:18:19.299Z,94.99
2018-07-25T01:20:51.380Z,95.00
2018-07-25T01:23:23.448Z,94.50
2018-07-25T01:25:55.475Z,93.54
2018-07-25T01:28:27.535Z,94.11
2018-07-25T01:30:59.615Z,93.34
2018-07-25T01:33:31.723Z,93.29
2018-07-25T01:36:03.807Z,93.53
2018-07-25T01:38:36.053Z,94.06
2018-07-25T01:41:08.202Z,93.90
2018-07-25T01:43:40.223Z,94.01
2018-07-25T01:46:12.235Z,93.14
2018-07-25T01:48:44.299Z,93.57
2018-07-25T01:51:16.396Z,93.24
2018-07-25T01:53:48.486Z,94.55
2018-07-25T01:56:20.496Z,94.38
2018-07-25T01:58:52.560Z,94.91
2018-07-25T02:01:24.620Z,95.73
2018-07-25T02:03:56.638Z,96.05
2018-07-25T02:06:28.712Z,96.42
2018-07-25T02:09:00.779Z,96.26
2018-07-25T02:11:32.852Z,95.90
2018-07-25T02:14:04.908Z,96.81
2018-07-25T02:16:37.045Z,97.44
2018-07-25T02:19:09.081Z,98.27
2018-07-25T02:21:41.129Z,98.10
2018-07-25T02:24:13.179Z,97.87
2018-07-25T02:26:45.191Z,97.72
2018-07-25T02:29:17.220Z,97.78
2018-07-25T02:31:49.320Z,99.09
2018-07-25T02:34:22.210Z,98.97
2018-07-25T02:36:54.227Z,98.99
2018-07-25T02:39:26.297Z,98.83
2018-07-25T02:41:58.369Z,98.97
2018-07-25T02:44:30.408Z,99.34
2018-07-25T02:47:02.518Z,99.19
2018-07-25T02:49:34.642Z,99.69
2018-07-25T02:52:06.756Z,99.09
2018-07-25T02:54:38.823Z,99.41
2018-07-25T02:57:10.868Z,99.81
2018-07-25T02:59:42.935Z,100.00
2018-07-25T03:02:15.011Z,99.41
2018-07-25T03:04:47.065Z,100.00
2018-07-25T03:07:19.188Z,98.78
2018-07-25T03:09:51.230Z,99.69
2018-07-25T03:12:23.269Z,99.99
2018-07-25T03:14:55.293Z,99.79
2018-07-25T03:17:27.322Z,100.00
2018-07-25T03:19:59.362Z,100.00
2018-07-25T03:22:31.397Z,99.39
2018-07-25T03:25:03.600Z,99.95
2018-07-25T03:27:35.611Z,99.39
2018-07-25T03:30:07.668Z,99.23
2018-07-25T03:32:39.727Z,99.98
2018-07-25T03:35:11.750Z,100.00
2018-07-25T03:37:43.764Z,100.00
2018-07-25T03:40:15.831Z,100.00
2018-07-25T03:42:47.860Z,100.00
2018-07-25T03:45:19.932Z,100.00
2018-07-25T03:47:51.948Z,100.00
2018-07-25T03:50:24.041Z,99.40
2018-07-25T03:52:56.214Z,99.42
2018-07-25T03:55:28.268Z,99.07
2018-07-25T03:58:00.292Z,99.37
2018-07-25T04:00:32.385Z,99.50
2018-07-25T04:03:04.502Z,99.14
2018-07-25T04:05:36.538Z,99.39
2018-07-25T04:08:08.625Z,98.92
2018-07-25T04:10:42.768Z,98.35
2018-07-25T04:13:15.302Z,98.58
2018-07-25T04:15:47.693Z,98.34
2018-07-25T04:18:19.699Z,98.13
2018-07-25T04:20:51.769Z,97.35
2018-07-25T04:23:23.857Z,96.28
2018-07-25T04:25:55.951Z,95.67
2018-07-25T04:28:27.994Z,95.71
2018-07-25T04:31:00.060Z,95.47
2018-07-25T04:33:32.127Z,94.77
2018-07-25T04:36:04.307Z,93.97
2018-07-25T04:38:36.328Z,92.92
2018-07-25T04:41:08.385Z,91.89
2018-07-25T04:43:40.439Z,90.50
2018-07-25T04:46:12.590Z,88.75
2018-07-25T04:48:44.623Z,85.77
2018-07-25T04:51:16.716Z,80.83
2018-07-25T04:53:48.837Z,75.67
2018-07-25T04:56:20.949Z,72.43
2018-07-25T04:58:52.972Z,71.62
2018-07-25T05:01:25.039Z,72.37
2018-07-25T05:03:57.098Z,70.32
2018-07-25T05:06:29.187Z,66.97
2018-07-25T05:09:01.244Z,64.58
2018-07-25T05:11:33.356Z,60.69
2018-07-25T05:14:05.743Z,57.92
2018-07-25T05:16:37.868Z,57.59
2018-07-25T05:19:09.980Z,61.26
2018-07-25T05:21:42.044Z,64.23
2018-07-25T05:24:14.064Z,65.60
2018-07-25T05:26:46.193Z,66.93
2018-07-25T05:29:18.242Z,63.40
2018-07-25T05:31:50.442Z,56.89
2018-07-25T05:34:22.512Z,51.35
2018-07-25T05:36:54.623Z,47.48
2018-07-25T05:39:26.690Z,50.93
2018-07-25T05:41:58.823Z,49.50
2018-07-25T05:44:30.891Z,48.29
2018-07-25T05:47:03.029Z,48.23
2018-07-25T05:49:35.107Z,48.72
2018-07-25T05:52:07.265Z,47.59
2018-07-25T05:54:39.393Z,45.54
2018-07-25T05:57:11.435Z,44.22
2018-07-25T05:59:44.518Z,44.48
2018-07-25T06:02:16.623Z,45.03
2018-07-25T06:04:48.665Z,43.15
2018-07-25T06:07:20.727Z,42.73
2018-07-25T06:09:52.797Z,41.64
2018-07-25T06:12:24.930Z,41.07
2018-07-25T06:14:56.988Z,41.73
2018-07-25T06:17:29.097Z,40.02
2018-07-25T06:20:01.127Z,36.99
2018-07-25T06:22:33.159Z,36.47
2018-07-25T06:25:05.232Z,38.07
2018-07-25T06:27:37.300Z,35.90
2018-07-25T06:30:09.328Z,36.61
2018-07-25T06:32:41.647Z,35.04
2018-07-25T06:35:13.710Z,34.31
2018-07-25T06:37:45.760Z,33.51
2018-07-25T06:40:17.801Z,33.23
2018-07-25T06:42:49.815Z,33.19
2018-07-25T06:45:21.851Z,34.94
2018-07-25T06:47:53.916Z,34.46
2018-07-25T06:50:25.942Z,34.93
2018-07-25T06:52:57.986Z,35.31
2018-07-25T06:55:30.040Z,32.28
2018-07-25T06:58:02.096Z,31.57
2018-07-25T07:00:34.139Z,31.47
2018-07-25T07:03:06.206Z,32.11
2018-07-25T07:05:38.233Z,30.72
2018-07-25T07:08:10.291Z,30.27
2018-07-25T07:10:42.382Z,31.41
2018-07-25T07:13:14.534Z,30.11
2018-07-25T07:15:46.640Z,30.78
2018-07-25T07:18:18.724Z,31.30
2018-07-25T07:20:51.038Z,29.89
2018-07-25T07:23:23.142Z,28.74
2018-07-25T07:25:55.286Z,30.24
2018-07-25T07:28:27.265Z,30.79
2018-07-25T07:30:59.311Z,29.67
2018-07-25T07:33:31.934Z,29.26
2018-07-25T07:36:04.012Z,28.16
2018-07-25T07:38:36.067Z,27.27
2018-07-25T07:41:08.150Z,28.88
2018-07-25T07:43:40.220Z,28.76
2018-07-25T07:46:12.292Z,27.71
2018-07-25T07:48:44.348Z,27.58
2018-07-25T07:51:16.409Z,25.65
2018-07-25T07:53:48.458Z,27.40
2018-07-25T07:56:20.550Z,27.64
2018-07-25T07:58:52.616Z,26.66
2018-07-25T08:01:24.740Z,27.09
2018-07-25T08:03:56.815Z,26.87
2018-07-25T08:06:28.895Z,26.84
2018-07-25T08:09:00.973Z,27.32
2018-07-25T08:11:32.998Z,27.95
2018-07-25T08:14:05.093Z,28.89
2018-07-25T08:16:37.138Z,26.25
2018-07-25T08:19:09.980Z,25.67
2018-07-25T08:21:41.999Z,27.25
2018-07-25T08:24:14.091Z,28.30
2018-07-25T08:26:46.145Z,27.52
2018-07-25T08:29:18.229Z,26.96
2018-07-25T08:31:50.326Z,26.83
2018-07-25T08:34:22.475Z,25.63
2018-07-25T08:36:54.531Z,26.69
2018-07-25T08:39:26.623Z,25.76
2018-07-25T08:43:02.088Z,26.96
2018-07-25T08:45:34.192Z,26.78
2018-07-25T08:48:06.264Z,26.91
2018-07-25T08:50:38.332Z,27.49
2018-07-25T08:53:10.393Z,26.18
2018-07-25T08:55:42.429Z,26.67
2018-07-25T08:58:14.485Z,26.68
2018-07-25T09:00:46.527Z,25.71
2018-07-25T09:03:18.616Z,25.49
2018-07-25T09:05:50.710Z,25.64
2018-07-25T09:08:22.758Z,25.44
2018-07-25T09:10:54.835Z,23.95
2018-07-25T09:13:26.860Z,25.02
2018-07-25T09:15:58.881Z,23.82
2018-07-25T09:18:30.953Z,24.18
2018-07-25T09:21:03.063Z,25.06
2018-07-25T09:23:35.071Z,24.29
2018-07-25T09:26:07.088Z,25.89
2018-07-25T09:28:39.102Z,27.14
2018-07-25T09:31:11.168Z,27.98
2018-07-25T09:33:43.288Z,26.53
2018-07-25T09:36:15.541Z,27.03
2018-07-25T09:38:47.590Z,26.58
2018-07-25T09:41:19.638Z,26.10
2018-07-25T09:43:51.696Z,24.56
2018-07-25T09:46:23.784Z,25.73
2018-07-25T09:48:55.853Z,25.80
2018-07-25T09:51:27.917Z,26.45
2018-07-25T09:54:00.036Z,25.35
2018-07-25T09:56:32.148Z,27.77
2018-07-25T09:59:04.394Z,26.52
2018-07-25T10:01:36.559Z,27.44
2018-07-25T10:04:08.669Z,26.90
2018-07-25T10:06:40.708Z,27.00
2018-07-25T10:09:12.804Z,25.01
2018-07-25T10:11:44.911Z,25.26
2018-07-25T10:14:16.987Z,24.76
2018-07-25T10:16:49.052Z,25.53
2018-07-25T10:19:21.443Z,23.42
2018-07-25T10:21:53.594Z,25.89
2018-07-25T10:24:25.709Z,26.54
2018-07-25T10:26:57.775Z,26.73
2018-07-25T10:29:29.987Z,25.76
2018-07-25T10:32:02.320Z,26.94
2018-07-25T10:34:34.428Z,24.65
2018-07-25T10:37:06.550Z,24.72
2018-07-25T10:39:38.604Z,25.11
2018-07-25T10:42:10.710Z,24.85
2018-07-25T10:44:42.835Z,24.11
2018-07-25T10:47:14.915Z,26.41
2018-07-25T10:49:46.966Z,26.91
2018-07-25T10:52:19.043Z,26.01
2018-07-25T10:54:51.119Z,24.41
2018-07-25T10:57:23.179Z,24.77
2018-07-25T10:59:55.275Z,26.37
2018-07-25T11:02:27.319Z,26.55
2018-07-25T11:04:59.375Z,26.67
2018-07-25T11:07:31.483Z,24.79
2018-07-25T11:10:04.410Z,23.45
2018-07-25T11:12:36.615Z,22.14
2018-07-25T11:15:08.764Z,20.78
2018-07-25T11:17:41.014Z,22.40
2018-07-25T11:20:13.041Z,21.89
2018-07-25T11:22:45.091Z,23.56
2018-07-25T11:25:17.194Z,25.17
2018-07-25T11:27:49.279Z,28.15
2018-07-25T11:30:21.377Z,29.11
2018-07-25T11:32:53.492Z,29.84
2018-07-25T11:35:25.530Z,30.41
2018-07-25T11:37:57.567Z,30.60
2018-07-25T11:40:29.706Z,30.59
2018-07-25T11:43:02.870Z,29.24
2018-07-25T11:45:35.032Z,28.56
2018-07-25T11:48:07.080Z,27.98
2018-07-25T11:50:39.148Z,27.18
2018-07-25T11:53:11.179Z,26.52
2018-07-25T11:55:43.296Z,25.98
2018-07-25T11:58:15.379Z,24.01
2018-07-25T12:00:47.506Z,24.00
2018-07-25T12:03:19.576Z,23.33
2018-07-25T12:05:51.615Z,22.50
2018-07-25T12:08:23.651Z,25.69
2018-07-25T12:10:55.669Z,26.22
2018-07-25T12:13:27.755Z,26.57
2018-07-25T12:15:59.789Z,30.35
2018-07-25T12:18:31.881Z,31.54
2018-07-25T12:21:04.220Z,37.21
2018-07-25T12:23:36.366Z,55.15
2018-07-25T12:26:08.920Z,52.96
2018-07-25T12:28:41.051Z,59.68
2018-07-25T12:31:13.124Z,63.18
2018-07-25T12:33:45.255Z,53.67
2018-07-25T12:36:17.340Z,50.99
2018-07-25T12:38:49.515Z,37.16
2018-07-25T12:41:21.618Z,34.20
2018-07-25T12:43:53.644Z,33.90
2018-07-25T12:46:25.688Z,35.39
2018-07-25T12:48:57.723Z,32.86
2018-07-25T12:51:29.868Z,33.84
2018-07-25T12:54:01.954Z,38.17
2018-07-25T12:56:34.085Z,38.36
2018-07-25T12:59:06.196Z,37.51
2018-07-25T13:01:38.273Z,35.03
2018-07-25T13:04:10.307Z,35.00
2018-07-25T13:06:42.327Z,36.77
2018-07-25T13:09:14.399Z,36.67
2018-07-25T13:11:46.398Z,38.14
2018-07-25T13:14:18.419Z,30.64
2018-07-25T13:16:50.587Z,28.77
2018-07-25T13:19:23.664Z,28.18
2018-07-25T13:21:56.748Z,28.60
2018-07-25T13:24:28.825Z,31.06
2018-07-25T13:27:00.937Z,32.70
2018-07-25T13:29:32.975Z,34.14
2018-07-25T13:32:05.091Z,34.54
2018-07-25T13:34:37.107Z,32.96
2018-07-25T13:37:09.205Z,34.12
2018-07-25T13:39:41.263Z,33.58
2018-07-25T13:42:13.443Z,31.88
2018-07-25T13:44:45.562Z,31.98
2018-07-25T13:47:17.624Z,32.37
2018-07-25T13:49:49.660Z,31.23
2018-07-25T13:52:21.729Z,32.84
2018-07-25T13:54:53.858Z,31.11
2018-07-25T13:57:25.923Z,31.43
2018-07-25T13:59:57.975Z,35.26
2018-07-25T14:02:30.012Z,37.53
2018-07-25T14:05:02.076Z,39.52
2018-07-25T14:07:34.123Z,39.82
2018-07-25T14:10:06.993Z,38.29
2018-07-25T14:12:39.103Z,34.70
2018-07-25T14:15:13.202Z,34.22
2018-07-25T14:17:45.258Z,33.44
2018-07-25T14:20:17.367Z,34.27
2018-07-25T14:22:49.519Z,32.02
2018-07-25T14:25:21.635Z,30.18
2018-07-25T14:27:53.680Z,28.66
2018-07-25T14:30:25.907Z,27.21
2018-07-25T14:32:57.888Z,27.83
2018-07-25T14:35:29.920Z,25.45
2018-07-25T14:38:01.997Z,24.30
2018-07-25T14:40:34.032Z,22.66
2018-07-25T14:43:06.123Z,22.27
2018-07-25T14:45:38.235Z,25.40
2018-07-25T14:48:10.321Z,27.37
2018-07-25T14:50:42.389Z,30.25
2018-07-25T14:53:14.435Z,30.56
2018-07-25T14:55:46.449Z,31.48
2018-07-25T14:58:18.496Z,32.28
2018-07-25T15:00:50.523Z,33.67
2018-07-25T15:03:22.582Z,36.60
2018-07-25T15:05:54.620Z,35.75
2018-07-25T15:08:26.673Z,37.53
2018-07-25T15:10:58.707Z,37.34
2018-07-25T15:13:30.774Z,37.41
2018-07-25T15:16:02.842Z,32.06
2018-07-25T15:18:34.933Z,26.73
2018-07-25T15:21:07.027Z,26.53
2018-07-25T15:23:50.649Z,24.50
2018-07-25T15:26:22.652Z,22.21
2018-07-25T15:28:54.770Z,22.00
2018-07-25T15:31:26.910Z,21.43
2018-07-25T15:33:59.035Z,21.82
2018-07-25T15:36:42.024Z,23.24
2018-07-25T15:39:18.376Z,22.79
2018-07-25T15:41:51.274Z,23.93
2018-07-25T15:44:24.463Z,25.37
2018-07-25T15:46:56.594Z,29.08
2018-07-25T15:49:28.715Z,31.38
2018-07-25T15:52:00.820Z,31.12
2018-07-25T15:54:32.933Z,32.87
2018-07-25T15:57:05.115Z,32.02
2018-07-25T15:59:37.213Z,33.90
2018-07-25T16:02:09.343Z,32.97
2018-07-25T16:04:41.408Z,32.32
2018-07-25T16:07:13.520Z,33.17
2018-07-25T16:09:45.618Z,31.93
2018-07-25T16:12:17.684Z,33.29
2018-07-25T16:14:49.751Z,33.52
2018-07-25T16:17:21.875Z,32.83
2018-07-25T16:19:53.961Z,33.54
2018-07-25T16:22:26.065Z,33.62
2018-07-25T16:24:58.198Z,35.07
2018-07-25T16:27:30.274Z,38.06
2018-07-25T16:30:02.373Z,39.29
2018-07-25T16:32:34.478Z,40.29
2018-07-25T16:35:06.502Z,43.45
2018-07-25T16:37:39.113Z,43.83
2018-07-25T16:40:11.247Z,44.74
2018-07-25T16:42:43.300Z,44.32
2018-07-25T16:45:15.380Z,43.38
2018-07-25T16:47:47.444Z,44.05
2018-07-25T16:50:19.521Z,44.63
2018-07-25T16:52:52.030Z,44.83
2018-07-25T16:55:24.099Z,45.13
2018-07-25T16:57:56.135Z,44.55
2018-07-25T17:00:28.196Z,44.05
2018-07-25T17:03:00.246Z,44.23
2018-07-25T17:05:32.313Z,45.32
2018-07-25T17:08:04.643Z,44.60
2018-07-25T17:10:36.750Z,46.09
2018-07-25T17:13:08.792Z,45.86
2018-07-25T17:15:40.899Z,45.37
2018-07-25T17:18:13.272Z,43.47
2018-07-25T17:20:46.190Z,43.67
2018-07-25T17:23:18.254Z,43.90
2018-07-25T17:25:50.310Z,42.91
2018-07-25T17:28:22.346Z,42.96
2018-07-25T17:30:54.410Z,42.51
2018-07-25T17:33:26.459Z,41.25
2018-07-25T17:35:58.539Z,41.84
2018-07-25T17:38:30.632Z,41.83
2018-07-25T17:41:02.791Z,41.90
2018-07-25T17:43:34.795Z,42.92
2018-07-25T17:46:06.902Z,44.61
2018-07-25T17:48:38.979Z,44.29
2018-07-25T17:51:11.032Z,44.61
2018-07-25T17:53:43.099Z,44.47
2018-07-25T17:56:15.163Z,43.61
2018-07-25T17:58:47.263Z,44.65
2018-07-25T18:01:19.320Z,44.17
2018-07-25T18:03:51.671Z,43.93
2018-07-25T18:06:23.667Z,45.06
2018-07-25T18:08:55.752Z,45.28
2018-07-25T18:11:27.775Z,46.05
2018-07-25T18:14:05.726Z,45.67
2018-07-25T18:16:37.759Z,46.38
2018-07-25T18:19:09.829Z,46.12
2018-07-25T18:21:42.182Z,48.54
2018-07-25T18:24:14.214Z,49.79
2018-07-25T18:26:46.270Z,49.40
2018-07-25T18:29:18.393Z,50.01
2018-07-25T18:31:50.436Z,51.17
2018-07-25T18:34:22.500Z,50.14
2018-07-25T18:36:54.564Z,51.20
2018-07-25T18:39:26.614Z,51.63
2018-07-25T18:41:58.663Z,50.66
2018-07-25T18:44:30.715Z,52.87
2018-07-25T18:47:03.094Z,52.70
2018-07-25T18:49:35.116Z,52.21
2018-07-25T18:52:07.264Z,50.13
2018-07-25T18:54:39.393Z,43.47
2018-07-25T18:57:11.434Z,45.24
2018-07-25T18:59:43.501Z,47.21
2018-07-25T19:02:15.514Z,46.46
2018-07-25T19:04:47.530Z,45.51
2018-07-25T19:07:19.618Z,46.94
2018-07-25T19:09:51.595Z,47.00
2018-07-25T19:12:23.635Z,46.08
2018-07-25T19:15:01.364Z,47.49
2018-07-25T19:17:33.432Z,50.30
2018-07-25T19:20:05.491Z,49.83
2018-07-25T19:22:37.528Z,49.38
2018-07-25T19:25:09.596Z,50.34
2018-07-25T19:27:41.657Z,50.83
2018-07-25T19:30:13.736Z,51.00
2018-07-25T19:32:45.807Z,51.08
2018-07-25T19:35:17.888Z,50.70
2018-07-25T19:37:50.017Z,52.15
2018-07-25T19:40:22.060Z,50.92
2018-07-25T19:42:54.069Z,51.12
2018-07-25T19:45:26.152Z,50.87
2018-07-25T19:47:58.199Z,52.36
2018-07-25T19:50:30.391Z,52.69
2018-07-25T19:53:02.390Z,53.62
2018-07-25T19:55:34.447Z,54.60
2018-07-25T19:58:06.483Z,55.57
2018-07-25T20:00:38.573Z,56.95
2018-07-25T20:03:10.611Z,58.57
2018-07-25T20:05:42.648Z,59.12
2018-07-25T20:08:14.707Z,60.53
2018-07-25T20:10:46.755Z,61.19
2018-07-25T20:13:18.827Z,60.99
2018-07-25T20:15:58.467Z,62.87
2018-07-25T20:18:30.684Z,63.18
2018-07-25T20:21:02.816Z,63.38
2018-07-25T20:23:34.826Z,63.29
2018-07-25T20:26:07.031Z,63.72
2018-07-25T20:28:39.266Z,64.19
2018-07-25T20:31:11.336Z,64.02
2018-07-25T20:33:43.339Z,65.10
2018-07-25T20:36:15.423Z,64.75
2018-07-25T20:38:47.555Z,65.35
2018-07-25T20:41:19.583Z,65.99
2018-07-25T20:43:51.639Z,65.81
2018-07-25T20:46:23.748Z,66.05
2018-07-25T20:48:55.787Z,66.25
2018-07-25T20:51:28.007Z,67.08
2018-07-25T20:54:00.467Z,65.93
2018-07-25T20:56:32.739Z,66.92
2018-07-25T20:59:04.860Z,64.97
2018-07-25T21:01:36.939Z,65.27
2018-07-25T21:04:08.994Z,67.45
2018-07-25T21:06:41.056Z,63.67
2018-07-25T21:09:19.988Z,66.59
2018-07-25T21:11:52.077Z,65.54
2018-07-25T21:14:24.212Z,65.49
2018-07-25T21:16:56.262Z,65.33
2018-07-25T21:19:28.275Z,64.30
2018-07-25T21:22:00.729Z,64.08
2018-07-25T21:24:32.767Z,66.35
2018-07-25T21:27:04.823Z,65.04
2018-07-25T21:29:37.090Z,64.78
2018-07-25T21:32:09.163Z,64.63
2018-07-25T21:34:41.187Z,65.06
2018-07-25T21:37:13.300Z,66.20
2018-07-25T21:39:45.380Z,67.06
2018-07-25T21:42:19.451Z,66.67
2018-07-25T21:44:52.642Z,67.05
2018-07-25T21:47:24.679Z,67.29
2018-07-25T21:49:56.708Z,68.41
2018-07-25T21:52:28.755Z,69.01
2018-07-25T21:55:00.776Z,69.13
2018-07-25T21:57:32.809Z,69.44
2018-07-25T22:00:08.588Z,70.83
2018-07-25T22:02:40.695Z,71.58
2018-07-25T22:05:13.182Z,71.45
2018-07-25T22:07:45.867Z,72.10
2018-07-25T22:10:17.931Z,73.22
2018-07-25T22:12:50.000Z,73.29
2018-07-25T22:15:22.237Z,73.30
2018-07-25T22:17:54.339Z,73.17
2018-07-25T22:20:26.405Z,72.72
2018-07-25T22:22:58.471Z,73.34
2018-07-25T22:25:30.531Z,73.38
2018-07-25T22:28:02.604Z,73.77
2018-07-25T22:30:34.663Z,73.96
2018-07-25T22:33:06.841Z,74.91
2018-07-25T22:35:38.867Z,74.38
2018-07-25T22:38:10.923Z,75.79
2018-07-25T22:40:42.965Z,75.81
2018-07-25T22:43:15.027Z,76.19
2018-07-25T22:45:47.075Z,76.31
2018-07-25T22:48:19.115Z,77.10
2018-07-25T22:50:51.243Z,76.65
2018-07-25T22:53:23.286Z,77.36
2018-07-25T22:55:55.307Z,77.05
2018-07-25T22:58:27.354Z,77.47
2018-07-25T23:00:59.378Z,78.01
2018-07-25T23:03:31.468Z,77.53
2018-07-25T23:06:03.573Z,78.10
2018-07-25T23:08:35.634Z,77.87
2018-07-25T23:11:07.659Z,78.68
2018-07-25T23:13:44.293Z,79.81
2018-07-25T23:16:17.007Z,80.26
2018-07-25T23:18:49.047Z,81.03
2018-07-25T23:21:21.046Z,82.49
2018-07-25T23:23:53.061Z,82.19
2018-07-25T23:26:25.083Z,83.58
2018-07-25T23:28:57.112Z,83.98
2018-07-25T23:31:29.172Z,84.70
2018-07-25T23:34:01.194Z,84.88
2018-07-25T23:36:33.216Z,85.40
2018-07-25T23:39:06.970Z,86.17
2018-07-25T23:41:39.345Z,86.07
2018-07-25T23:44:11.419Z,86.94
2018-07-25T23:46:43.477Z,87.71
2018-07-25T23:49:15.638Z,88.07
2018-07-25T23:51:47.710Z,88.91
2018-07-25T23:54:19.769Z,88.93
2018-07-25T23:56:51.899Z,89.75
2018-07-25T23:59:23.904Z,90.02
